YRTXU LRBS-LGKR
Flight info
| Callsign | YRTXU |
|---|---|
| Flight time | N/A |
| Altitude | 12000 |
| Route | BABAK DCT SOMOV DCT VELBA DCT BITLA |
| Aircraft | C182/L-SDGRY/S |
Departure
| Time | N/A |
|---|---|
| Airport | Bucharest Băneasa Aurel Vlaicu International Airport (LRBS) |
Arrival
| Time | 2026-05-01 12:09 |
|---|---|
| Airport | Corfu Ioannis Kapodistrias International Airport (LGKR) |
| Time | Latitude | Longitude | Altitude | Speed | Heading |
|---|---|---|---|---|---|
| 2026-05-01 10:27 | 41.77512 | 22.60979 | 9358 ft | 120 kts | 229° |
| 2026-05-01 10:28 | 41.76934 | 22.60159 | 9358 ft | 122 kts | 229° |
| 2026-05-01 10:28 | 41.75767 | 22.58498 | 9366 ft | 123 kts | 229° |
| 2026-05-01 10:28 | 41.75192 | 22.57683 | 9487 ft | 115 kts | 229° |
| 2026-05-01 10:29 | 41.74145 | 22.56201 | 9730 ft | 106 kts | 229° |
| 2026-05-01 10:29 | 41.73643 | 22.55489 | 9849 ft | 102 kts | 229° |
| 2026-05-01 10:30 | 41.72700 | 22.54153 | 10090 ft | 96 kts | 229° |
| 2026-05-01 10:30 | 41.71793 | 22.52866 | 10327 ft | 95 kts | 230° |
| 2026-05-01 10:31 | 41.70805 | 22.51462 | 10368 ft | 113 kts | 229° |
| 2026-05-01 10:31 | 41.69882 | 22.50152 | 10370 ft | 118 kts | 228° |
| 2026-05-01 10:32 | 41.68553 | 22.48271 | 10380 ft | 121 kts | 229° |
| 2026-05-01 10:32 | 41.67970 | 22.47446 | 10368 ft | 122 kts | 229° |
| 2026-05-01 10:32 | 41.66804 | 22.45796 | 10370 ft | 123 kts | 228° |
| 2026-05-01 10:33 | 41.65631 | 22.44136 | 10367 ft | 122 kts | 229° |
| 2026-05-01 10:33 | 41.64461 | 22.42484 | 10367 ft | 122 kts | 229° |
| 2026-05-01 10:34 | 41.64069 | 22.41931 | 10367 ft | 122 kts | 229° |
| 2026-05-01 10:34 | 41.63294 | 22.40835 | 10368 ft | 122 kts | 229° |
| 2026-05-01 10:34 | 41.62907 | 22.40289 | 10366 ft | 122 kts | 229° |
| 2026-05-01 10:35 | 41.61740 | 22.38642 | 10372 ft | 120 kts | 229° |
| 2026-05-01 10:35 | 41.61193 | 22.37872 | 10491 ft | 111 kts | 229° |
| 2026-05-01 10:35 | 41.60642 | 22.37094 | 10443 ft | 119 kts | 229° |
| 2026-05-01 10:35 | 41.60065 | 22.36280 | 10379 ft | 123 kts | 229° |
| 2026-05-01 10:36 | 41.58852 | 22.34570 | 10244 ft | 128 kts | 228° |
| 2026-05-01 10:36 | 41.58250 | 22.33721 | 10231 ft | 125 kts | 228° |
| 2026-05-01 10:36 | 41.57651 | 22.32880 | 10229 ft | 123 kts | 228° |
| 2026-05-01 10:37 | 41.57070 | 22.32061 | 10223 ft | 121 kts | 228° |
| 2026-05-01 10:37 | 41.55914 | 22.30436 | 10220 ft | 119 kts | 228° |
| 2026-05-01 10:37 | 41.55350 | 22.29640 | 10215 ft | 118 kts | 228° |
| 2026-05-01 10:38 | 41.54796 | 22.28862 | 10223 ft | 116 kts | 227° |
| 2026-05-01 10:38 | 41.54232 | 22.28071 | 10226 ft | 118 kts | 228° |
| 2026-05-01 10:38 | 41.53669 | 22.27279 | 10225 ft | 118 kts | 228° |
| 2026-05-01 10:38 | 41.53105 | 22.26486 | 10226 ft | 119 kts | 228° |
| 2026-05-01 10:39 | 41.52535 | 22.25685 | 10225 ft | 118 kts | 228° |
| 2026-05-01 10:39 | 41.51962 | 22.24881 | 10227 ft | 119 kts | 228° |
| 2026-05-01 10:39 | 41.51398 | 22.24089 | 10229 ft | 119 kts | 228° |
| 2026-05-01 10:39 | 41.50822 | 22.23280 | 10235 ft | 120 kts | 227° |
| 2026-05-01 10:40 | 41.50248 | 22.22474 | 10231 ft | 120 kts | 228° |
| 2026-05-01 10:40 | 41.49675 | 22.21670 | 10232 ft | 120 kts | 228° |
| 2026-05-01 10:40 | 41.49095 | 22.20857 | 10232 ft | 120 kts | 228° |
| 2026-05-01 10:40 | 41.48515 | 22.20044 | 10235 ft | 120 kts | 228° |
| 2026-05-01 10:41 | 41.47928 | 22.19218 | 10127 ft | 126 kts | 227° |
| 2026-05-01 10:41 | 41.47309 | 22.18350 | 10002 ft | 130 kts | 227° |
| 2026-05-01 10:41 | 41.46053 | 22.16593 | 9748 ft | 132 kts | 228° |
| 2026-05-01 10:42 | 41.45416 | 22.15702 | 9613 ft | 132 kts | 228° |
| 2026-05-01 10:42 | 41.44778 | 22.14809 | 9484 ft | 133 kts | 228° |
| 2026-05-01 10:42 | 41.44147 | 22.13927 | 9355 ft | 132 kts | 228° |
| 2026-05-01 10:42 | 41.43512 | 22.13038 | 9236 ft | 130 kts | 228° |
| 2026-05-01 10:43 | 41.42912 | 22.12200 | 9225 ft | 122 kts | 228° |
| 2026-05-01 10:43 | 41.42333 | 22.11391 | 9224 ft | 118 kts | 228° |
| 2026-05-01 10:43 | 41.41758 | 22.10585 | 9111 ft | 123 kts | 228° |
| 2026-05-01 10:43 | 41.41156 | 22.09744 | 8975 ft | 126 kts | 227° |
| 2026-05-01 10:44 | 41.40545 | 22.08890 | 8851 ft | 127 kts | 228° |
| 2026-05-01 10:44 | 41.39934 | 22.08038 | 8721 ft | 128 kts | 228° |
| 2026-05-01 10:44 | 41.39318 | 22.07179 | 8601 ft | 130 kts | 228° |
| 2026-05-01 10:44 | 41.38690 | 22.06303 | 8473 ft | 130 kts | 228° |
| 2026-05-01 10:45 | 41.38066 | 22.05431 | 8347 ft | 132 kts | 228° |
| 2026-05-01 10:45 | 41.37429 | 22.04543 | 8244 ft | 129 kts | 228° |
| 2026-05-01 10:45 | 41.36823 | 22.03698 | 8238 ft | 124 kts | 228° |
| 2026-05-01 10:45 | 41.36240 | 22.02886 | 8235 ft | 121 kts | 228° |
| 2026-05-01 10:46 | 41.35657 | 22.02074 | 8224 ft | 119 kts | 227° |
| 2026-05-01 10:46 | 41.35092 | 22.01285 | 8228 ft | 118 kts | 228° |
| 2026-05-01 10:46 | 41.34520 | 22.00491 | 8226 ft | 118 kts | 228° |
| 2026-05-01 10:46 | 41.33953 | 21.99701 | 8232 ft | 116 kts | 227° |
| 2026-05-01 10:47 | 41.33401 | 21.98934 | 8228 ft | 116 kts | 228° |
| 2026-05-01 10:47 | 41.32846 | 21.98161 | 8230 ft | 117 kts | 227° |
| 2026-05-01 10:47 | 41.32273 | 21.97365 | 8227 ft | 118 kts | 227° |
| 2026-05-01 10:47 | 41.31718 | 21.96591 | 8226 ft | 117 kts | 229° |
| 2026-05-01 10:48 | 41.31154 | 21.95807 | 8225 ft | 116 kts | 228° |
| 2026-05-01 10:48 | 41.30606 | 21.95044 | 8233 ft | 115 kts | 228° |
| 2026-05-01 10:48 | 41.30057 | 21.94282 | 8225 ft | 111 kts | 228° |
| 2026-05-01 10:48 | 41.29529 | 21.93551 | 8242 ft | 113 kts | 228° |
| 2026-05-01 10:49 | 41.28977 | 21.92783 | 8238 ft | 115 kts | 227° |
| 2026-05-01 10:49 | 41.28424 | 21.92015 | 8245 ft | 117 kts | 228° |
| 2026-05-01 10:49 | 41.27857 | 21.91226 | 8240 ft | 118 kts | 228° |
| 2026-05-01 10:49 | 41.27297 | 21.90450 | 8240 ft | 117 kts | 229° |
| 2026-05-01 10:50 | 41.26732 | 21.89666 | 8242 ft | 117 kts | 227° |
| 2026-05-01 10:50 | 41.26162 | 21.88874 | 8243 ft | 119 kts | 227° |
| 2026-05-01 10:50 | 41.25594 | 21.88088 | 8236 ft | 118 kts | 227° |
| 2026-05-01 10:50 | 41.25029 | 21.87303 | 8235 ft | 118 kts | 228° |
| 2026-05-01 10:51 | 41.24467 | 21.86523 | 8236 ft | 116 kts | 228° |
| 2026-05-01 10:51 | 41.23906 | 21.85747 | 8242 ft | 116 kts | 227° |
| 2026-05-01 10:51 | 41.23339 | 21.84962 | 8243 ft | 117 kts | 228° |
| 2026-05-01 10:51 | 41.22776 | 21.84183 | 8244 ft | 119 kts | 227° |
| 2026-05-01 10:52 | 41.22198 | 21.83381 | 8241 ft | 120 kts | 227° |
| 2026-05-01 10:52 | 41.21625 | 21.82589 | 8240 ft | 119 kts | 227° |
| 2026-05-01 10:52 | 41.21050 | 21.81794 | 8243 ft | 118 kts | 227° |
| 2026-05-01 10:52 | 41.20476 | 21.80997 | 8238 ft | 119 kts | 227° |
| 2026-05-01 10:53 | 41.19912 | 21.80217 | 8235 ft | 118 kts | 227° |
| 2026-05-01 10:53 | 41.19349 | 21.79442 | 8236 ft | 117 kts | 227° |
| 2026-05-01 10:53 | 41.18775 | 21.78647 | 8237 ft | 119 kts | 227° |
| 2026-05-01 10:53 | 41.18202 | 21.77854 | 8239 ft | 119 kts | 227° |
| 2026-05-01 10:54 | 41.17632 | 21.77067 | 8234 ft | 118 kts | 227° |
| 2026-05-01 10:54 | 41.17056 | 21.76271 | 8232 ft | 119 kts | 227° |
| 2026-05-01 10:54 | 41.16488 | 21.75486 | 8231 ft | 117 kts | 227° |
| 2026-05-01 10:54 | 41.15911 | 21.74691 | 8168 ft | 121 kts | 227° |
| 2026-05-01 10:55 | 41.15325 | 21.73880 | 8097 ft | 124 kts | 227° |
| 2026-05-01 10:55 | 41.14716 | 21.73040 | 8029 ft | 126 kts | 227° |
| 2026-05-01 10:55 | 41.14114 | 21.72210 | 7954 ft | 125 kts | 227° |
| 2026-05-01 10:55 | 41.13501 | 21.71364 | 7880 ft | 126 kts | 227° |
| 2026-05-01 10:56 | 41.12896 | 21.70531 | 7801 ft | 124 kts | 227° |
| 2026-05-01 10:56 | 41.12298 | 21.69707 | 7726 ft | 125 kts | 227° |
| 2026-05-01 10:56 | 41.11700 | 21.68883 | 7735 ft | 123 kts | 227° |
| 2026-05-01 10:56 | 41.11110 | 21.68071 | 7731 ft | 121 kts | 227° |
| 2026-05-01 10:57 | 41.10530 | 21.67271 | 7723 ft | 120 kts | 227° |
| 2026-05-01 10:57 | 41.09955 | 21.66481 | 7722 ft | 118 kts | 227° |
| 2026-05-01 10:57 | 41.09386 | 21.65698 | 7720 ft | 118 kts | 227° |
| 2026-05-01 10:57 | 41.08819 | 21.64918 | 7726 ft | 116 kts | 227° |
| 2026-05-01 10:58 | 41.08258 | 21.64146 | 7729 ft | 118 kts | 227° |
| 2026-05-01 10:58 | 41.07690 | 21.63366 | 7724 ft | 118 kts | 228° |
| 2026-05-01 10:58 | 41.07120 | 21.62580 | 7717 ft | 118 kts | 227° |
| 2026-05-01 10:58 | 41.06558 | 21.61810 | 7726 ft | 116 kts | 228° |
| 2026-05-01 10:59 | 41.05996 | 21.61037 | 7719 ft | 116 kts | 228° |
| 2026-05-01 10:59 | 41.05432 | 21.60261 | 7717 ft | 115 kts | 227° |
| 2026-05-01 10:59 | 41.04871 | 21.59491 | 7727 ft | 117 kts | 227° |
| 2026-05-01 10:59 | 41.04305 | 21.58715 | 7728 ft | 118 kts | 227° |
| 2026-05-01 11:00 | 41.03738 | 21.57935 | 7728 ft | 117 kts | 227° |
| 2026-05-01 11:00 | 41.03179 | 21.57168 | 7730 ft | 115 kts | 227° |
| 2026-05-01 11:00 | 41.02619 | 21.56398 | 7724 ft | 115 kts | 227° |
| 2026-05-01 11:00 | 41.02055 | 21.55629 | 7731 ft | 118 kts | 227° |
| 2026-05-01 11:01 | 41.01487 | 21.54849 | 7725 ft | 119 kts | 227° |
| 2026-05-01 11:01 | 41.00909 | 21.54057 | 7732 ft | 118 kts | 227° |
| 2026-05-01 11:01 | 41.00341 | 21.53277 | 7727 ft | 119 kts | 227° |
| 2026-05-01 11:01 | 40.99771 | 21.52497 | 7717 ft | 118 kts | 228° |
| 2026-05-01 11:02 | 40.99192 | 21.51703 | 7724 ft | 119 kts | 227° |
| 2026-05-01 11:02 | 40.98619 | 21.50919 | 7711 ft | 120 kts | 227° |
| 2026-05-01 11:02 | 40.98050 | 21.50138 | 7712 ft | 118 kts | 227° |
| 2026-05-01 11:02 | 40.97478 | 21.49356 | 7722 ft | 117 kts | 228° |
| 2026-05-01 11:03 | 40.96918 | 21.48591 | 7725 ft | 116 kts | 228° |
| 2026-05-01 11:03 | 40.96355 | 21.47821 | 7717 ft | 116 kts | 227° |
| 2026-05-01 11:03 | 40.95795 | 21.47054 | 7726 ft | 117 kts | 228° |
| 2026-05-01 11:03 | 40.95226 | 21.46276 | 7720 ft | 117 kts | 228° |
| 2026-05-01 11:04 | 40.94658 | 21.45499 | 7714 ft | 116 kts | 227° |
| 2026-05-01 11:04 | 40.94098 | 21.44734 | 7723 ft | 117 kts | 228° |
| 2026-05-01 11:04 | 40.93528 | 21.43956 | 7708 ft | 118 kts | 228° |
| 2026-05-01 11:04 | 40.92974 | 21.43202 | 7791 ft | 111 kts | 228° |
| 2026-05-01 11:05 | 40.92425 | 21.42450 | 7932 ft | 120 kts | 228° |
| 2026-05-01 11:05 | 40.91840 | 21.41651 | 8180 ft | 121 kts | 227° |
| 2026-05-01 11:05 | 40.91251 | 21.40847 | 8445 ft | 121 kts | 227° |
| 2026-05-01 11:05 | 40.90664 | 21.40045 | 8704 ft | 122 kts | 227° |
| 2026-05-01 11:06 | 40.90075 | 21.39242 | 8962 ft | 122 kts | 227° |
| 2026-05-01 11:06 | 40.89480 | 21.38430 | 9219 ft | 123 kts | 227° |
| 2026-05-01 11:06 | 40.88889 | 21.37626 | 9480 ft | 123 kts | 227° |
| 2026-05-01 11:07 | 40.87701 | 21.36005 | 10008 ft | 121 kts | 227° |
| 2026-05-01 11:07 | 40.87078 | 21.35274 | 10252 ft | 122 kts | 221° |
| 2026-05-01 11:07 | 40.86413 | 21.34568 | 10489 ft | 122 kts | 221° |
| 2026-05-01 11:07 | 40.85752 | 21.33861 | 10731 ft | 123 kts | 221° |
| 2026-05-01 11:08 | 40.85083 | 21.33142 | 10980 ft | 123 kts | 221° |
| 2026-05-01 11:08 | 40.84422 | 21.32432 | 11226 ft | 123 kts | 221° |
| 2026-05-01 11:08 | 40.83076 | 21.30984 | 11700 ft | 127 kts | 221° |
| 2026-05-01 11:09 | 40.82361 | 21.30213 | 11716 ft | 139 kts | 221° |
| 2026-05-01 11:09 | 40.81588 | 21.29380 | 11710 ft | 146 kts | 221° |
| 2026-05-01 11:09 | 40.80799 | 21.28532 | 11714 ft | 148 kts | 221° |
| 2026-05-01 11:10 | 40.79384 | 21.27018 | 11695 ft | 121 kts | 221° |
| 2026-05-01 11:10 | 40.78722 | 21.26308 | 11692 ft | 122 kts | 221° |
| 2026-05-01 11:10 | 40.78069 | 21.25605 | 11691 ft | 122 kts | 221° |
| 2026-05-01 11:10 | 40.77419 | 21.24907 | 11702 ft | 118 kts | 221° |
| 2026-05-01 11:11 | 40.76772 | 21.24212 | 11699 ft | 120 kts | 221° |
| 2026-05-01 11:11 | 40.76125 | 21.23516 | 11694 ft | 121 kts | 221° |
| 2026-05-01 11:11 | 40.75461 | 21.22803 | 11693 ft | 123 kts | 221° |
| 2026-05-01 11:11 | 40.74802 | 21.22098 | 11694 ft | 123 kts | 221° |
| 2026-05-01 11:12 | 40.74131 | 21.21378 | 11699 ft | 123 kts | 221° |
| 2026-05-01 11:12 | 40.73476 | 21.20677 | 11693 ft | 122 kts | 221° |
| 2026-05-01 11:12 | 40.72811 | 21.19964 | 11695 ft | 123 kts | 221° |
| 2026-05-01 11:12 | 40.72149 | 21.19255 | 11692 ft | 124 kts | 221° |
| 2026-05-01 11:13 | 40.71481 | 21.18539 | 11693 ft | 123 kts | 221° |
| 2026-05-01 11:13 | 40.70818 | 21.17827 | 11691 ft | 123 kts | 221° |
| 2026-05-01 11:13 | 40.70150 | 21.17114 | 11690 ft | 125 kts | 220° |
| 2026-05-01 11:13 | 40.69476 | 21.16393 | 11691 ft | 126 kts | 221° |
| 2026-05-01 11:14 | 40.68791 | 21.15660 | 11694 ft | 125 kts | 221° |
| 2026-05-01 11:14 | 40.68116 | 21.14939 | 11686 ft | 125 kts | 221° |
| 2026-05-01 11:14 | 40.67450 | 21.14226 | 11686 ft | 125 kts | 221° |
| 2026-05-01 11:14 | 40.66766 | 21.13495 | 11687 ft | 125 kts | 221° |
| 2026-05-01 11:15 | 40.66097 | 21.12779 | 11684 ft | 124 kts | 221° |
| 2026-05-01 11:15 | 40.65437 | 21.12074 | 11679 ft | 122 kts | 221° |
| 2026-05-01 11:15 | 40.64775 | 21.11368 | 11677 ft | 122 kts | 221° |
| 2026-05-01 11:15 | 40.64108 | 21.10655 | 11682 ft | 125 kts | 221° |
| 2026-05-01 11:16 | 40.63658 | 21.10174 | 11679 ft | 125 kts | 221° |
| 2026-05-01 11:16 | 40.62759 | 21.09216 | 11678 ft | 124 kts | 221° |
| 2026-05-01 11:16 | 40.62089 | 21.08500 | 11685 ft | 126 kts | 221° |
| 2026-05-01 11:16 | 40.61410 | 21.07774 | 11683 ft | 127 kts | 221° |
| 2026-05-01 11:17 | 40.60722 | 21.07041 | 11679 ft | 125 kts | 221° |
| 2026-05-01 11:17 | 40.60056 | 21.06333 | 11673 ft | 124 kts | 221° |
| 2026-05-01 11:17 | 40.59606 | 21.05853 | 11674 ft | 125 kts | 221° |
| 2026-05-01 11:17 | 40.58933 | 21.05135 | 11679 ft | 125 kts | 221° |
| 2026-05-01 11:18 | 40.58257 | 21.04415 | 11679 ft | 124 kts | 221° |
| 2026-05-01 11:18 | 40.57577 | 21.03690 | 11588 ft | 130 kts | 221° |
| 2026-05-01 11:18 | 40.56871 | 21.02937 | 11471 ft | 134 kts | 221° |
| 2026-05-01 11:18 | 40.56135 | 21.02152 | 11353 ft | 136 kts | 221° |
| 2026-05-01 11:19 | 40.55399 | 21.01369 | 11239 ft | 137 kts | 221° |
| 2026-05-01 11:19 | 40.54657 | 21.00583 | 11180 ft | 134 kts | 221° |
| 2026-05-01 11:19 | 40.53946 | 20.99830 | 11165 ft | 130 kts | 221° |
| 2026-05-01 11:19 | 40.53248 | 20.99086 | 11162 ft | 128 kts | 221° |
| 2026-05-01 11:20 | 40.52565 | 20.98359 | 11152 ft | 125 kts | 221° |
| 2026-05-01 11:20 | 40.51891 | 20.97643 | 11157 ft | 124 kts | 221° |
| 2026-05-01 11:20 | 40.51248 | 20.96962 | 11271 ft | 116 kts | 222° |
| 2026-05-01 11:20 | 40.50636 | 20.96314 | 11382 ft | 109 kts | 222° |
| 2026-05-01 11:21 | 40.50054 | 20.95695 | 11492 ft | 108 kts | 222° |
| 2026-05-01 11:21 | 40.49476 | 20.95082 | 11607 ft | 105 kts | 222° |
| 2026-05-01 11:21 | 40.48877 | 20.94445 | 11841 ft | 113 kts | 222° |
| 2026-05-01 11:21 | 40.48252 | 20.93779 | 12103 ft | 118 kts | 222° |
| 2026-05-01 11:22 | 40.47601 | 20.93087 | 12372 ft | 121 kts | 223° |
| 2026-05-01 11:22 | 40.46954 | 20.92403 | 12618 ft | 113 kts | 223° |
| 2026-05-01 11:22 | 40.46344 | 20.91757 | 12644 ft | 116 kts | 223° |
| 2026-05-01 11:22 | 40.45707 | 20.91079 | 12651 ft | 119 kts | 223° |
| 2026-05-01 11:23 | 40.45064 | 20.90399 | 12655 ft | 120 kts | 223° |
| 2026-05-01 11:23 | 40.44403 | 20.89696 | 12659 ft | 123 kts | 223° |
| 2026-05-01 11:23 | 40.43735 | 20.88989 | 12658 ft | 123 kts | 223° |
| 2026-05-01 11:23 | 40.43063 | 20.88278 | 12655 ft | 124 kts | 223° |
| 2026-05-01 11:24 | 40.42398 | 20.87574 | 12651 ft | 125 kts | 223° |
| 2026-05-01 11:24 | 40.41713 | 20.86848 | 12648 ft | 124 kts | 223° |
| 2026-05-01 11:24 | 40.40399 | 20.85460 | 12642 ft | 122 kts | 223° |
| 2026-05-01 11:25 | 40.39740 | 20.84762 | 12646 ft | 121 kts | 223° |
| 2026-05-01 11:25 | 40.38419 | 20.83364 | 12640 ft | 122 kts | 223° |
| 2026-05-01 11:25 | 40.37757 | 20.82666 | 12636 ft | 121 kts | 223° |
| 2026-05-01 11:26 | 40.37114 | 20.81987 | 12636 ft | 119 kts | 223° |
| 2026-05-01 11:26 | 40.35835 | 20.80638 | 12628 ft | 118 kts | 224° |
| 2026-05-01 11:26 | 40.35192 | 20.79958 | 12628 ft | 118 kts | 223° |
| 2026-05-01 11:27 | 40.34558 | 20.79288 | 12625 ft | 118 kts | 224° |
| 2026-05-01 11:27 | 40.33902 | 20.78640 | 12631 ft | 120 kts | 215° |
| 2026-05-01 11:27 | 40.33331 | 20.77881 | 12631 ft | 119 kts | 243° |
| 2026-05-01 11:27 | 40.32945 | 20.76933 | 12621 ft | 117 kts | 243° |
| 2026-05-01 11:28 | 40.32563 | 20.76020 | 12502 ft | 113 kts | 243° |
| 2026-05-01 11:28 | 40.32167 | 20.75089 | 12308 ft | 122 kts | 243° |
| 2026-05-01 11:28 | 40.31747 | 20.74084 | 12102 ft | 126 kts | 242° |
| 2026-05-01 11:29 | 40.30898 | 20.72031 | 11717 ft | 131 kts | 243° |
| 2026-05-01 11:29 | 40.30468 | 20.70981 | 11517 ft | 132 kts | 243° |
| 2026-05-01 11:29 | 40.29498 | 20.68935 | 11019 ft | 137 kts | 239° |
| 2026-05-01 11:30 | 40.28992 | 20.67855 | 10661 ft | 141 kts | 239° |
| 2026-05-01 11:30 | 40.28478 | 20.66742 | 10317 ft | 142 kts | 239° |
| 2026-05-01 11:30 | 40.27976 | 20.65653 | 10075 ft | 137 kts | 239° |
| 2026-05-01 11:30 | 40.27490 | 20.64605 | 9821 ft | 135 kts | 239° |
| 2026-05-01 11:31 | 40.26994 | 20.63536 | 9553 ft | 137 kts | 239° |
| 2026-05-01 11:31 | 40.26507 | 20.62477 | 9277 ft | 135 kts | 239° |
| 2026-05-01 11:31 | 40.26024 | 20.61431 | 9055 ft | 133 kts | 239° |
| 2026-05-01 11:31 | 40.25548 | 20.60406 | 9041 ft | 129 kts | 238° |
| 2026-05-01 11:32 | 40.25092 | 20.59419 | 9027 ft | 127 kts | 238° |
| 2026-05-01 11:32 | 40.24644 | 20.58453 | 9025 ft | 119 kts | 239° |
| 2026-05-01 11:32 | 40.24221 | 20.57539 | 9026 ft | 118 kts | 239° |
| 2026-05-01 11:32 | 40.23799 | 20.56625 | 9025 ft | 118 kts | 238° |
| 2026-05-01 11:33 | 40.23369 | 20.55697 | 9027 ft | 118 kts | 239° |
| 2026-05-01 11:33 | 40.22942 | 20.54774 | 9025 ft | 120 kts | 238° |
| 2026-05-01 11:33 | 40.22505 | 20.53835 | 9016 ft | 120 kts | 239° |
| 2026-05-01 11:33 | 40.22082 | 20.52917 | 9018 ft | 118 kts | 238° |
| 2026-05-01 11:34 | 40.21652 | 20.51986 | 9020 ft | 120 kts | 239° |
| 2026-05-01 11:34 | 40.21223 | 20.51060 | 9018 ft | 119 kts | 238° |
| 2026-05-01 11:34 | 40.20783 | 20.50117 | 9022 ft | 122 kts | 239° |
| 2026-05-01 11:34 | 40.20345 | 20.49171 | 9020 ft | 122 kts | 239° |
| 2026-05-01 11:35 | 40.19907 | 20.48223 | 9023 ft | 121 kts | 239° |
| 2026-05-01 11:35 | 40.19472 | 20.47288 | 9016 ft | 120 kts | 239° |
| 2026-05-01 11:35 | 40.19034 | 20.46345 | 9016 ft | 120 kts | 239° |
| 2026-05-01 11:35 | 40.18605 | 20.45424 | 9011 ft | 119 kts | 238° |
| 2026-05-01 11:36 | 40.18167 | 20.44481 | 9005 ft | 120 kts | 238° |
| 2026-05-01 11:36 | 40.17743 | 20.43569 | 9004 ft | 117 kts | 239° |
| 2026-05-01 11:36 | 40.17320 | 20.42660 | 9004 ft | 116 kts | 238° |
| 2026-05-01 11:36 | 40.16899 | 20.41752 | 8998 ft | 114 kts | 238° |
| 2026-05-01 11:37 | 40.16494 | 20.40886 | 8979 ft | 111 kts | 239° |
| 2026-05-01 11:37 | 40.16097 | 20.40032 | 9005 ft | 111 kts | 238° |
| 2026-05-01 11:37 | 40.15688 | 20.39153 | 9009 ft | 114 kts | 239° |
| 2026-05-01 11:37 | 40.15274 | 20.38263 | 9011 ft | 116 kts | 238° |
| 2026-05-01 11:38 | 40.14862 | 20.37381 | 9014 ft | 112 kts | 239° |
| 2026-05-01 11:38 | 40.14439 | 20.36471 | 9007 ft | 121 kts | 239° |
| 2026-05-01 11:38 | 40.13995 | 20.35513 | 9007 ft | 124 kts | 239° |
| 2026-05-01 11:38 | 40.13548 | 20.34553 | 9003 ft | 125 kts | 239° |
| 2026-05-01 11:39 | 40.13099 | 20.33589 | 9005 ft | 122 kts | 239° |
| 2026-05-01 11:39 | 40.12656 | 20.32644 | 9005 ft | 121 kts | 239° |
| 2026-05-01 11:39 | 40.12220 | 20.31711 | 9008 ft | 121 kts | 239° |
| 2026-05-01 11:39 | 40.11775 | 20.30758 | 8998 ft | 123 kts | 239° |
| 2026-05-01 11:40 | 40.11327 | 20.29794 | 9000 ft | 123 kts | 239° |
| 2026-05-01 11:40 | 40.10884 | 20.28845 | 8995 ft | 121 kts | 239° |
| 2026-05-01 11:40 | 40.10449 | 20.27916 | 9003 ft | 123 kts | 240° |
| 2026-05-01 11:40 | 40.10000 | 20.26954 | 8997 ft | 123 kts | 239° |
| 2026-05-01 11:41 | 40.09560 | 20.26013 | 8998 ft | 123 kts | 239° |
| 2026-05-01 11:41 | 40.09113 | 20.25057 | 8993 ft | 122 kts | 239° |
| 2026-05-01 11:41 | 40.08673 | 20.24117 | 8993 ft | 122 kts | 239° |
| 2026-05-01 11:41 | 40.08231 | 20.23172 | 8991 ft | 121 kts | 239° |
| 2026-05-01 11:42 | 40.07800 | 20.22249 | 8992 ft | 120 kts | 239° |
| 2026-05-01 11:42 | 40.07357 | 20.21306 | 8989 ft | 121 kts | 239° |
| 2026-05-01 11:42 | 40.06926 | 20.20384 | 8990 ft | 120 kts | 239° |
| 2026-05-01 11:42 | 40.06484 | 20.19441 | 8988 ft | 120 kts | 239° |
| 2026-05-01 11:43 | 40.06052 | 20.18519 | 8988 ft | 120 kts | 239° |
| 2026-05-01 11:43 | 40.05618 | 20.17592 | 8989 ft | 120 kts | 240° |
| 2026-05-01 11:43 | 40.05169 | 20.16633 | 8879 ft | 126 kts | 239° |
| 2026-05-01 11:44 | 40.04350 | 20.14891 | 8580 ft | 105 kts | 240° |
| 2026-05-01 11:44 | 40.03954 | 20.14046 | 8447 ft | 110 kts | 240° |
| 2026-05-01 11:44 | 40.03549 | 20.13182 | 8328 ft | 115 kts | 240° |
| 2026-05-01 11:44 | 40.03127 | 20.12280 | 8202 ft | 115 kts | 239° |
| 2026-05-01 11:45 | 40.02711 | 20.11394 | 8079 ft | 116 kts | 239° |
| 2026-05-01 11:45 | 40.02281 | 20.10478 | 7876 ft | 121 kts | 240° |
| 2026-05-01 11:45 | 40.01834 | 20.09528 | 7644 ft | 127 kts | 240° |
| 2026-05-01 11:45 | 40.01362 | 20.08523 | 7400 ft | 131 kts | 240° |
| 2026-05-01 11:46 | 40.00879 | 20.07493 | 7164 ft | 133 kts | 239° |
| 2026-05-01 11:46 | 40.00394 | 20.06458 | 6923 ft | 136 kts | 239° |
| 2026-05-01 11:46 | 39.99899 | 20.05411 | 6682 ft | 136 kts | 239° |
| 2026-05-01 11:46 | 39.99407 | 20.04368 | 6434 ft | 135 kts | 239° |
| 2026-05-01 11:47 | 39.98915 | 20.03322 | 6176 ft | 136 kts | 239° |
| 2026-05-01 11:47 | 39.98421 | 20.02272 | 5930 ft | 136 kts | 239° |
| 2026-05-01 11:47 | 39.97928 | 20.01226 | 5667 ft | 136 kts | 239° |
| 2026-05-01 11:47 | 39.97432 | 20.00173 | 5412 ft | 136 kts | 239° |
| 2026-05-01 11:48 | 39.96937 | 19.99122 | 5163 ft | 137 kts | 239° |
| 2026-05-01 11:48 | 39.96434 | 19.98055 | 4910 ft | 137 kts | 238° |
| 2026-05-01 11:48 | 39.95938 | 19.97005 | 4659 ft | 137 kts | 238° |
| 2026-05-01 11:48 | 39.95435 | 19.95939 | 4396 ft | 137 kts | 238° |
| 2026-05-01 11:49 | 39.94940 | 19.94892 | 4135 ft | 136 kts | 238° |
| 2026-05-01 11:49 | 39.94446 | 19.93845 | 3894 ft | 135 kts | 238° |
| 2026-05-01 11:49 | 39.93957 | 19.92810 | 3636 ft | 134 kts | 238° |
| 2026-05-01 11:49 | 39.93466 | 19.91771 | 3388 ft | 134 kts | 238° |
| 2026-05-01 11:50 | 39.92983 | 19.90750 | 3143 ft | 132 kts | 238° |
| 2026-05-01 11:50 | 39.92499 | 19.89728 | 2887 ft | 132 kts | 238° |
| 2026-05-01 11:50 | 39.92019 | 19.88712 | 2641 ft | 132 kts | 239° |
| 2026-05-01 11:50 | 39.91537 | 19.87692 | 2386 ft | 131 kts | 239° |
| 2026-05-01 11:51 | 39.91062 | 19.86691 | 2131 ft | 129 kts | 239° |
| 2026-05-01 11:51 | 39.90598 | 19.85713 | 1992 ft | 119 kts | 239° |
| 2026-05-01 11:51 | 39.90183 | 19.84841 | 1975 ft | 112 kts | 239° |
| 2026-05-01 11:51 | 39.89675 | 19.84090 | 1980 ft | 113 kts | 204° |
| 2026-05-01 11:52 | 39.88911 | 19.84191 | 1981 ft | 115 kts | 162° |
| 2026-05-01 11:52 | 39.88143 | 19.84510 | 1985 ft | 117 kts | 164° |
| 2026-05-01 11:52 | 39.87372 | 19.84812 | 2217 ft | 115 kts | 164° |
| 2026-05-01 11:52 | 39.86597 | 19.85102 | 2481 ft | 117 kts | 164° |
| 2026-05-01 11:53 | 39.85813 | 19.85383 | 2742 ft | 118 kts | 165° |
| 2026-05-01 11:53 | 39.85006 | 19.85663 | 2996 ft | 122 kts | 164° |
| 2026-05-01 11:53 | 39.84173 | 19.85942 | 3254 ft | 125 kts | 164° |
| 2026-05-01 11:53 | 39.83322 | 19.86219 | 3509 ft | 126 kts | 164° |
| 2026-05-01 11:54 | 39.82459 | 19.86434 | 3762 ft | 128 kts | 171° |
| 2026-05-01 11:54 | 39.81561 | 19.86591 | 3987 ft | 133 kts | 170° |
| 2026-05-01 11:54 | 39.80598 | 19.86798 | 4023 ft | 146 kts | 168° |
| 2026-05-01 11:54 | 39.79625 | 19.87018 | 4286 ft | 139 kts | 168° |
| 2026-05-01 11:55 | 39.78677 | 19.87235 | 4543 ft | 136 kts | 167° |
| 2026-05-01 11:55 | 39.77741 | 19.87452 | 4806 ft | 137 kts | 167° |
| 2026-05-01 11:55 | 39.76801 | 19.87669 | 4980 ft | 140 kts | 168° |
| 2026-05-01 11:55 | 39.75846 | 19.87894 | 4996 ft | 138 kts | 167° |
| 2026-05-01 11:56 | 39.74922 | 19.88106 | 4999 ft | 134 kts | 167° |
| 2026-05-01 11:56 | 39.73975 | 19.88325 | 5001 ft | 142 kts | 167° |
| 2026-05-01 11:56 | 39.73310 | 19.88480 | 4988 ft | 148 kts | 168° |
| 2026-05-01 11:56 | 39.71971 | 19.88786 | 4990 ft | 146 kts | 168° |
| 2026-05-01 11:57 | 39.70979 | 19.89014 | 4872 ft | 143 kts | 168° |
| 2026-05-01 11:57 | 39.70337 | 19.89160 | 4780 ft | 138 kts | 167° |
| 2026-05-01 11:57 | 39.69402 | 19.89375 | 4635 ft | 133 kts | 167° |
| 2026-05-01 11:57 | 39.68224 | 19.89647 | 4447 ft | 127 kts | 167° |
| 2026-05-01 11:58 | 39.67357 | 19.89847 | 4297 ft | 126 kts | 167° |
| 2026-05-01 11:58 | 39.66490 | 19.90049 | 4100 ft | 126 kts | 167° |
| 2026-05-01 11:58 | 39.65185 | 19.90346 | 3689 ft | 108 kts | 168° |
| 2026-05-01 11:59 | 39.64449 | 19.90516 | 3398 ft | 106 kts | 168° |
| 2026-05-01 11:59 | 39.63733 | 19.90681 | 3109 ft | 105 kts | 168° |
| 2026-05-01 11:59 | 39.63020 | 19.90846 | 2825 ft | 103 kts | 168° |
| 2026-05-01 12:00 | 39.61587 | 19.91178 | 2314 ft | 107 kts | 168° |
| 2026-05-01 12:00 | 39.60856 | 19.91345 | 2030 ft | 105 kts | 169° |
| 2026-05-01 12:00 | 39.59614 | 19.91633 | 2001 ft | 96 kts | 168° |
| 2026-05-01 12:01 | 39.58915 | 19.91793 | 1986 ft | 100 kts | 169° |
| 2026-05-01 12:01 | 39.58257 | 19.91943 | 1986 ft | 92 kts | 169° |
| 2026-05-01 12:01 | 39.57650 | 19.92084 | 1981 ft | 87 kts | 168° |
| 2026-05-01 12:01 | 39.57057 | 19.92221 | 1983 ft | 87 kts | 168° |
| 2026-05-01 12:02 | 39.56462 | 19.92358 | 1984 ft | 87 kts | 168° |
| 2026-05-01 12:02 | 39.55857 | 19.92497 | 1986 ft | 88 kts | 168° |
| 2026-05-01 12:02 | 39.55259 | 19.92634 | 1984 ft | 88 kts | 168° |
| 2026-05-01 12:02 | 39.54653 | 19.92774 | 1989 ft | 90 kts | 168° |
| 2026-05-01 12:03 | 39.54031 | 19.92916 | 2001 ft | 91 kts | 168° |
| 2026-05-01 12:03 | 39.53405 | 19.93060 | 1974 ft | 93 kts | 168° |
| 2026-05-01 12:03 | 39.52749 | 19.93211 | 1862 ft | 99 kts | 169° |
| 2026-05-01 12:03 | 39.52063 | 19.93366 | 1746 ft | 101 kts | 168° |
| 2026-05-01 12:04 | 39.51356 | 19.93528 | 1635 ft | 104 kts | 169° |
| 2026-05-01 12:04 | 39.50642 | 19.93590 | 1505 ft | 105 kts | 193° |
| 2026-05-01 12:04 | 39.50068 | 19.93029 | 1373 ft | 105 kts | 238° |
| 2026-05-01 12:04 | 39.49939 | 19.92125 | 1240 ft | 104 kts | 281° |
| 2026-05-01 12:05 | 39.50293 | 19.91379 | 1190 ft | 94 kts | 322° |
| 2026-05-01 12:05 | 39.51431 | 19.91312 | 1223 ft | 90 kts | 33° |
| 2026-05-01 12:05 | 39.51975 | 19.91824 | 1207 ft | 98 kts | 35° |
| 2026-05-01 12:06 | 39.52523 | 19.92322 | 1194 ft | 91 kts | 36° |
| 2026-05-01 12:06 | 39.52973 | 19.92730 | 1154 ft | 70 kts | 35° |
| 2026-05-01 12:06 | 39.53446 | 19.92943 | 1189 ft | 77 kts | 4° |
| 2026-05-01 12:06 | 39.54011 | 19.92837 | 1214 ft | 85 kts | 348° |
| 2026-05-01 12:07 | 39.54591 | 19.92677 | 1227 ft | 84 kts | 348° |
| 2026-05-01 12:07 | 39.55166 | 19.92513 | 1205 ft | 85 kts | 349° |
| 2026-05-01 12:07 | 39.55743 | 19.92351 | 1094 ft | 85 kts | 348° |
| 2026-05-01 12:07 | 39.56335 | 19.92209 | 919 ft | 85 kts | 351° |
| 2026-05-01 12:08 | 39.56899 | 19.92080 | 748 ft | 82 kts | 349° |
| 2026-05-01 12:08 | 39.57455 | 19.91930 | 558 ft | 80 kts | 349° |
| 2026-05-01 12:08 | 39.57993 | 19.91788 | 381 ft | 78 kts | 350° |
| 2026-05-01 12:08 | 39.58522 | 19.91654 | 201 ft | 76 kts | 349° |
| 2026-05-01 12:09 | 39.59030 | 19.91517 | 66 ft | 74 kts | 351° |
| 2026-05-01 12:09 | 39.59525 | 19.91388 | 1 ft | 64 kts | 349° |
| 2026-05-01 12:09 | 39.59898 | 19.91291 | 3 ft | 46 kts | 348° |
| 2026-05-01 12:09 | 39.60179 | 19.91220 | 3 ft | 37 kts | 347° |
| 2026-05-01 12:10 | 39.60422 | 19.91156 | 0 ft | 36 kts | 348° |
| 2026-05-01 12:10 | 39.60574 | 19.91191 | 1 ft | 0 kts | 28° |
| 2026-05-01 12:13 | 39.60579 | 19.91194 | 1 ft | 3 kts | 25° |
| 2026-05-01 12:13 | 39.60626 | 19.91214 | 2 ft | 12 kts | 12° |
| 2026-05-01 12:13 | 39.60730 | 19.91209 | 2 ft | 19 kts | 347° |
| 2026-05-01 12:13 | 39.60879 | 19.91169 | 2 ft | 24 kts | 348° |
| 2026-05-01 12:14 | 39.61045 | 19.91126 | 2 ft | 24 kts | 348° |
| 2026-05-01 12:14 | 39.61165 | 19.91091 | 3 ft | 7 kts | 357° |
| 2026-05-01 12:14 | 39.61184 | 19.91147 | 3 ft | 7 kts | 79° |
| 2026-05-01 12:14 | 39.61184 | 19.91152 | 3 ft | 0 kts | 80° |